Terminal Aerodrome Forecast
Issued by NWS

Home | Current Version | Previous Version | Text Only | Print | Product List | Glossary On
Versions: 1 2 3 4 5 6 7 8 9 10 11 12 13 14 15 16 17 18 19 20 21 22 23 24 25 26 27
000
FTAK31 PANC 271735
TAFADL
TAF
PADL 271735Z 2718/2818 35015G25KT P6SM VCSH SCT025 BKN080
      WS015/15020KT
      TEMPO 2718/2720 3SM -SHSN BKN025
     FM272100 01012G18KT P6SM BKN080
     FM272300 01015KT P6SM SCT030 BKN060=

USA.gov is the U.S. government's official web portal to all federal, state and local government web resources and services.